Time;durP1;ratioP1;P1;durP2;ratioP2;P2;SDS_P1;SDS_P2;PMS_P1;PMS_P2;Temp;Humidity;BMP_temperature;BMP_pressure;BME280_temperature;BME280_humidity;BME280_pressure;Samples;Min_cycle;Max_cycle;Signal;HPM_P1;HPM_P2
2022/06/20 01:50:38;;;;;;;;;;;;;;;16.18;73.38;99995.81;6188741;23;1927;-92
2022/06/20 01:53:04;;;;;;;;;;;;;;;16.40;72.18;99997.53;6161576;23;1140;-92
2022/06/20 01:55:32;;;;;;;;;;;;;;;16.08;73.10;100004.44;6136981;23;1275;-92
2022/06/20 01:58:21;;;;;;;;;;;;;;;15.90;73.80;99997.38;6107858;23;1245;-92
2022/06/20 02:00:46;;;;;;;;;;;;;;;15.97;73.94;99989.38;6116347;23;1102;-92
2022/06/20 02:03:14;;;;;;;;;;;;;;;16.08;73.32;99976.00;6131925;23;1466;-92
2022/06/20 02:05:42;;;;;;;;;;;;;;;16.33;72.29;99958.56;6157867;23;1187;-92
2022/06/20 02:08:08;;;;;;;;;;;;;;;16.30;72.06;99967.50;6131996;23;1154;-92
2022/06/20 02:10:46;;;;;;;;;;;;;;;16.14;71.98;99983.00;6132157;23;1940;-92
2022/06/20 02:13:13;;;;;;;;;;;;;;;15.85;74.13;99997.50;6132124;23;1273;-92
2022/06/20 02:15:47;;;;;;;;;;;;;;;15.40;74.77;100003.38;6131978;23;1401;-92
2022/06/20 02:18:15;;;;;;;;;;;;;;;15.44;76.32;99995.25;6108005;23;1279;-92
2022/06/20 02:20:45;;;;;;;;;;;;;;;15.84;73.99;99993.94;6107330;23;1430;-93
2022/06/20 02:23:13;;;;;;;;;;;;;;;15.75;73.40;100006.94;6132021;23;1408;-92
2022/06/20 02:25:38;;;;;;;;;;;;;;;15.58;75.05;100017.19;6131694;23;1210;-92
2022/06/20 02:28:07;;;;;;;;;;;;;;;16.02;73.13;100021.50;6107343;23;1154;-92
2022/06/20 02:30:38;;;;;;;;;;;;;;;16.17;72.55;100021.78;6131571;23;1950;-92
2022/06/20 02:33:09;;;;;;;;;;;;;;;16.28;71.55;100036.88;6131915;23;1054;-92
2022/06/20 02:35:54;;;;;;;;;;;;;;;15.65;74.58;100034.09;6131583;23;1246;-92
2022/06/20 02:38:21;;;;;;;;;;;;;;;16.01;73.69;100042.78;6130225;23;1344;-92
2022/06/20 02:40:47;;;;;;;;;;;;;;;15.93;73.70;100038.09;6131670;23;1370;-92
2022/06/20 02:43:15;;;;;;;;;;;;;;;15.82;74.32;100034.84;6132102;23;1209;-92
2022/06/20 02:45:41;;;;;;;;;;;;;;;15.71;74.66;100038.28;6131872;23;1234;-92
2022/06/20 02:48:26;;;;;;;;;;;;;;;15.89;74.39;100053.69;6107131;23;1209;-93
2022/06/20 02:50:54;;;;;;;;;;;;;;;15.54;75.91;100093.47;6130944;23;1932;-92
2022/06/20 02:53:38;;;;;;;;;;;;;;;15.73;75.75;100108.59;6131467;23;1227;-92
2022/06/20 02:56:05;;;;;;;;;;;;;;;15.49;76.02;100127.50;6131388;23;1302;-92
2022/06/20 02:58:50;;;;;;;;;;;;;;;15.68;75.83;100177.69;6131662;23;1240;-92
2022/06/20 03:01:18;;;;;;;;;;;;;;;15.73;76.31;100190.56;6156706;23;1172;-92
2022/06/20 03:04:04;;;;;;;;;;;;;;;15.64;77.02;100181.44;6131253;23;1295;-92
2022/06/20 03:07:02;;;;;;;;;;;;;;;15.52;77.36;100235.25;6151145;23;928;-93
2022/06/20 03:09:51;;;;;;;;;;;;;;;15.74;76.69;100328.19;6108043;23;1096;-93
2022/06/20 03:12:19;;;;;;;;;;;;;;;15.75;77.08;100327.06;6131649;23;1912;-93
2022/06/20 03:15:13;;;;;;;;;;;;;;;15.88;77.08;100320.63;6131217;23;1256;-93
2022/06/20 03:18:00;;;;;;;;;;;;;;;15.83;76.42;100295.09;6156659;23;945;-93
2022/06/20 03:20:46;;;;;;;;;;;;;;;15.86;76.50;100272.38;6146714;23;973;-93
2022/06/20 03:23:18;;;;;;;;;;;;;;;15.89;76.32;100257.94;6131428;23;1341;-93
2022/06/20 03:28:58;;;;;;;;;;;;;;;15.84;76.07;100236.81;6157372;23;700;-93
2022/06/20 03:31:23;;;;;;;;;;;;;;;16.00;75.09;100225.31;6106887;23;1901;-93
2022/06/20 03:33:49;;;;;;;;;;;;;;;15.88;75.53;100212.16;6157050;23;1243;-93
2022/06/20 03:36:17;;;;;;;;;;;;;;;15.75;75.94;100210.34;6106741;23;1264;-93
2022/06/20 03:38:44;;;;;;;;;;;;;;;15.51;77.23;100206.03;6131067;23;1167;-93
2022/06/20 03:41:10;;;;;;;;;;;;;;;15.62;77.21;100214.06;6131323;23;1451;-93
2022/06/20 03:43:59;;;;;;;;;;;;;;;15.79;76.86;100203.06;6157116;23;1239;-92
2022/06/20 03:47:04;;;;;;;;;;;;;;;15.69;77.50;100197.84;6135476;23;1081;-93
2022/06/20 03:49:58;;;;;;;;;;;;;;;15.80;77.22;100179.84;6156685;23;1081;-93
2022/06/20 03:52:27;;;;;;;;;;;;;;;15.78;78.04;100149.81;6130919;23;1885;-93
2022/06/20 03:55:17;;;;;;;;;;;;;;;15.80;77.90;100119.13;6130917;23;1327;-93
2022/06/20 03:58:37;;;;;;;;;;;;;;;15.77;77.81;100042.50;6155063;23;1062;-93
2022/06/20 04:01:52;;;;;;;;;;;;;;;15.68;77.44;99992.03;6155728;23;951;-93
2022/06/20 04:04:21;;;;;;;;;;;;;;;15.70;77.03;99982.28;6088880;23;1386;-93
2022/06/20 04:07:44;;;;;;;;;;;;;;;15.69;76.02;99971.56;6151185;23;983;-92
2022/06/20 04:20:09;;;;;;;;;;;;;;;15.21;77.70;99738.22;6038205;23;969;-93
2022/06/20 04:23:14;;;;;;;;;;;;;;;14.89;79.07;99858.06;6010241;23;689;-91
2022/06/20 04:26:27;;;;;;;;;;;;;;;15.03;78.56;99860.69;5954380;24;990;-91
2022/06/20 04:28:55;;;;;;;;;;;;;;;15.06;78.26;99858.06;6004812;23;1206;-91
2022/06/20 04:31:20;;;;;;;;;;;;;;;15.03;76.71;99794.53;6020166;23;1914;-91
2022/06/20 04:34:13;;;;;;;;;;;;;;;15.08;76.76;99751.06;6131443;23;1329;-91
2022/06/20 04:37:17;;;;;;;;;;;;;;;14.86;78.08;99761.50;6016737;23;1037;-91
2022/06/20 04:40:40;;;;;;;;;;;;;;;14.93;79.80;99825.19;6041969;23;929;-90
2022/06/20 04:43:12;;;;;;;;;;;;;;;15.17;78.35;99828.22;5960555;23;1346;-91
2022/06/20 05:13:59;;;;;;;;;;;;;;;15.37;78.75;99946.13;6083301;23;1196;-91
2022/06/20 05:17:08;;;;;;;;;;;;;;;15.56;78.24;99951.34;6141477;23;1029;-92
2022/06/20 05:20:23;;;;;;;;;;;;;;;15.76;77.17;99950.63;6157668;23;847;-91
2022/06/20 05:23:30;;;;;;;;;;;;;;;15.88;77.47;99961.81;6157692;23;1232;-91
2022/06/20 05:25:56;;;;;;;;;;;;;;;15.80;77.63;99970.09;6154052;23;1177;-91
2022/06/20 05:28:23;;;;;;;;;;;;;;;15.76;76.20;99988.44;6157764;23;1444;-91
2022/06/20 05:31:16;;;;;;;;;;;;;;;15.99;76.53;100034.00;6158099;23;1943;-91
2022/06/20 05:34:21;;;;;;;;;;;;;;;15.87;77.18;100067.00;6147186;23;1285;-91
2022/06/20 05:37:30;;;;;;;;;;;;;;;15.70;77.07;100097.38;6127169;23;977;-92
2022/06/20 05:40:24;;;;;;;;;;;;;;;15.73;77.99;100102.25;6125409;23;1065;-91
2022/06/20 05:42:50;;;;;;;;;;;;;;;15.74;78.01;100098.31;6132614;23;1339;-91
2022/06/20 05:45:16;;;;;;;;;;;;;;;15.67;78.37;100115.38;6158023;23;1250;-91
2022/06/20 05:47:44;;;;;;;;;;;;;;;15.72;77.61;100142.00;6157928;23;1195;-91
2022/06/20 05:50:21;;;;;;;;;;;;;;;15.75;78.12;100152.38;6158208;23;1213;-91
2022/06/20 05:52:47;;;;;;;;;;;;;;;15.75;78.02;100144.91;6157426;23;1272;-91
2022/06/20 05:55:15;;;;;;;;;;;;;;;15.92;77.53;100157.09;6157545;23;1137;-91
2022/06/20 05:57:43;;;;;;;;;;;;;;;15.66;78.04;100170.88;6157535;23;1322;-92
2022/06/20 06:00:19;;;;;;;;;;;;;;;15.64;78.18;100162.13;6157510;23;1273;-91
2022/06/20 06:03:04;;;;;;;;;;;;;;;15.70;78.26;100155.31;6158117;23;1329;-91
2022/06/20 06:05:37;;;;;;;;;;;;;;;15.71;77.81;100148.66;6157516;23;1299;-91
2022/06/20 06:08:08;;;;;;;;;;;;;;;15.40;77.74;100154.25;6157876;23;1175;-90
2022/06/20 06:10:43;;;;;;;;;;;;;;;15.30;79.24;100160.06;6157909;23;1889;-91
2022/06/20 06:13:16;;;;;;;;;;;;;;;15.54;78.81;100170.72;6157359;23;1363;-91
2022/06/20 06:18:36;;;;;;;;;;;;;;;15.17;78.15;100189.38;6158863;23;621;-91
2022/06/20 06:21:01;;;;;;;;;;;;;;;15.18;78.10;100184.69;6157337;23;1229;-91
2022/06/20 06:23:27;;;;;;;;;;;;;;;14.69;79.54;100165.34;6157016;23;1181;-91
2022/06/20 06:25:52;;;;;;;;;;;;;;;14.66;80.55;100163.19;6156993;23;1394;-91
2022/06/20 06:28:19;;;;;;;;;;;;;;;14.56;80.13;100152.44;6157266;23;1008;-92
2022/06/20 06:31:00;;;;;;;;;;;;;;;14.49;80.27;100157.59;6157469;23;1964;-92
2022/06/20 06:33:28;;;;;;;;;;;;;;;14.76;79.74;100134.56;6159021;23;1262;-92
2022/06/20 06:36:12;;;;;;;;;;;;;;;15.07;78.44;100123.50;6160738;23;1519;-94
2022/06/20 06:41:38;;;;;;;;;;;;;;;15.10;78.20;100087.84;6159850;23;854;-92
2022/06/20 06:44:27;;;;;;;;;;;;;;;15.22;76.91;100080.91;6157357;23;1276;-92
2022/06/20 06:46:53;;;;;;;;;;;;;;;15.10;76.80;100076.81;6138386;23;1254;-93
2022/06/20 06:49:34;;;;;;;;;;;;;;;14.93;77.54;100073.19;6158058;23;1324;-92
2022/06/20 06:52:06;;;;;;;;;;;;;;;14.79;76.32;100078.84;6157784;23;1889;-92
2022/06/20 06:54:31;;;;;;;;;;;;;;;14.58;78.67;100078.59;6157012;23;1291;-91
2022/06/20 06:57:25;;;;;;;;;;;;;;;;;;;;;
2022/06/20 07:00:23;;;;;;;;;;;;;;;14.42;78.17;100112.34;6155373;23;1310;-93
2022/06/20 07:09:51;;;;;;;;;;;;;;;;;;;;;
2022/06/20 07:12:29;;;;;;;;;;;;;;;14.83;79.12;100150.63;6159291;23;1932;-92
2022/06/20 07:15:15;;;;;;;;;;;;;;;15.03;76.28;100150.91;6158042;23;1207;-92
2022/06/20 07:17:52;;;;;;;;;;;;;;;15.16;76.70;100149.16;6158245;23;1269;-92
2022/06/20 07:20:26;;;;;;;;;;;;;;;15.09;76.77;100157.06;6159593;23;1174;-92
2022/06/20 07:22:51;;;;;;;;;;;;;;;14.84;75.98;100157.78;6158221;23;1272;-92
2022/06/20 07:25:23;;;;;;;;;;;;;;;14.69;78.30;100157.06;6158139;23;1252;-93
2022/06/20 07:27:59;;;;;;;;;;;;;;;14.71;79.27;100156.75;6159486;23;1502;-92
2022/06/20 07:30:51;;;;;;;;;;;;;;;14.46;78.72;100163.72;6160178;23;1924;-91
2022/06/20 07:33:35;;;;;;;;;;;;;;;14.43;76.79;100158.84;6145266;23;1170;-93
2022/06/20 07:36:04;;;;;;;;;;;;;;;14.68;76.79;100158.19;6160435;23;1316;-92
2022/06/20 07:38:42;;;;;;;;;;;;;;;14.64;78.21;100154.44;6161641;23;1394;-92
2022/06/20 07:41:13;;;;;;;;;;;;;;;14.40;77.03;100153.97;6161167;23;1128;-92
2022/06/20 07:44:01;;;;;;;;;;;;;;;14.43;77.88;100163.56;6160726;23;1313;-92
2022/06/20 07:46:32;;;;;;;;;;;;;;;14.53;76.77;100164.13;6161025;23;1196;-92
2022/06/20 07:49:03;;;;;;;;;;;;;;;14.36;78.82;100167.53;6161834;23;1278;-92
2022/06/20 07:51:32;;;;;;;;;;;;;;;14.11;78.66;100167.34;6159982;23;1884;-92
2022/06/20 07:54:07;;;;;;;;;;;;;;;14.54;78.47;100176.75;6158203;23;1249;-92
2022/06/20 07:56:38;;;;;;;;;;;;;;;14.72;79.19;100183.97;6158185;23;1457;-92
2022/06/20 07:59:08;;;;;;;;;;;;;;;14.88;77.20;100194.59;6159697;23;1305;-92
2022/06/20 08:01:44;;;;;;;;;;;;;;;14.98;76.02;100208.09;6159026;23;1183;-92
2022/06/20 08:04:10;;;;;;;;;;;;;;;14.82;76.64;100207.69;6157934;23;1425;-92
2022/06/20 08:06:44;;;;;;;;;;;;;;;14.86;75.21;100207.88;6158487;23;1202;-91
2022/06/20 08:09:31;;;;;;;;;;;;;;;15.13;76.13;100208.50;6157505;23;1403;-92
2022/06/20 08:12:07;;;;;;;;;;;;;;;15.15;74.85;100222.78;6160078;23;1926;-92
2022/06/20 08:14:44;;;;;;;;;;;;;;;15.11;76.43;100215.47;6158617;23;1207;-92
2022/06/20 08:17:10;;;;;;;;;;;;;;;14.97;76.94;100223.03;6158933;23;1195;-92
2022/06/20 08:19:37;;;;;;;;;;;;;;;15.08;77.83;100224.38;6158350;23;1231;-92
2022/06/20 08:22:11;;;;;;;;;;;;;;;15.20;76.84;100224.59;6158491;23;1229;-92
2022/06/20 08:24:49;;;;;;;;;;;;;;;15.20;76.96;100224.59;6158843;23;1357;-92
2022/06/20 08:27:22;;;;;;;;;;;;;;;15.21;77.01;100220.72;6162602;23;1202;-92
2022/06/20 08:29:56;;;;;;;;;;;;;;;15.17;77.34;100222.47;6165219;23;1168;-92
2022/06/20 08:32:35;;;;;;;;;;;;;;;15.24;76.66;100216.47;6158834;23;1911;-92
2022/06/20 08:38:07;;;;;;;;;;;;;;;14.53;78.17;100219.19;6161667;23;1334;-91
2022/06/20 08:40:48;;;;;;;;;;;;;;;14.50;77.83;100219.81;6171033;23;1240;-93
2022/06/20 08:43:29;;;;;;;;;;;;;;;14.25;74.54;100212.13;6171504;23;1187;-92
2022/06/20 08:46:05;;;;;;;;;;;;;;;14.22;73.84;100212.75;6170344;23;1356;-92
2022/06/20 08:48:40;;;;;;;;;;;;;;;14.19;74.33;100218.91;6171072;23;1328;-91
2022/06/20 08:51:32;;;;;;;;;;;;;;;14.38;73.27;100217.59;6171052;23;1931;-92
2022/06/20 08:54:03;;;;;;;;;;;;;;;14.53;72.86;100212.88;6168355;23;1350;-93
2022/06/20 08:56:45;;;;;;;;;;;;;;;14.64;74.57;100208.72;6166861;23;1334;-92
2022/06/20 08:59:35;;;;;;;;;;;;;;;14.83;74.68;100205.75;6174366;23;1221;-92
2022/06/20 09:02:09;;;;;;;;;;;;;;;15.04;74.49;100206.84;6163811;23;1172;-93
2022/06/20 09:04:43;;;;;;;;;;;;;;;14.87;72.00;100209.50;6173919;23;1229;-93
2022/06/20 09:07:08;;;;;;;;;;;;;;;15.06;72.38;100199.06;6172513;23;1215;-93
2022/06/20 09:09:47;;;;;;;;;;;;;;;15.02;72.09;100200.84;6178641;23;1281;-93
2022/06/20 09:12:25;;;;;;;;;;;;;;;14.77;73.06;100203.13;6179058;23;1934;-93
2022/06/20 09:15:09;;;;;;;;;;;;;;;14.89;74.45;100210.00;6178478;23;1315;-93
2022/06/20 09:17:43;;;;;;;;;;;;;;;14.85;72.14;100214.53;6174964;23;1200;-88
2022/06/20 09:20:17;;;;;;;;;;;;;;;15.52;70.48;100215.94;6155803;23;1255;-88
2022/06/20 09:23:00;;;;;;;;;;;;;;;15.61;68.86;100213.25;6155931;23;1153;-87
2022/06/20 09:25:31;;;;;;;;;;;;;;;15.83;69.30;100215.88;6131623;23;1331;-87
2022/06/20 09:28:29;;;;;;;;;;;;;;;15.91;68.62;100224.50;6132047;23;1280;-89
2022/06/20 09:31:09;;;;;;;;;;;;;;;15.60;67.75;100214.38;6068190;23;1309;-88
2022/06/20 09:33:53;;;;;;;;;;;;;;;15.23;68.46;100226.69;6131295;23;1306;-88
2022/06/20 09:36:21;;;;;;;;;;;;;;;15.27;68.80;100233.22;6131278;23;1102;-88
2022/06/20 09:38:59;;;;;;;;;;;;;;;15.42;70.37;100229.22;6131825;23;1203;-88
2022/06/20 09:41:49;;;;;;;;;;;;;;;15.80;69.50;100232.28;6131644;23;1884;-88
2022/06/20 09:44:20;;;;;;;;;;;;;;;16.04;71.11;100218.81;6131414;23;1350;-89
2022/06/20 09:46:58;;;;;;;;;;;;;;;16.26;70.41;100228.91;6131612;23;1221;-89
2022/06/20 09:49:29;;;;;;;;;;;;;;;15.70;69.05;100238.09;6131010;23;1254;-88
2022/06/20 09:52:00;;;;;;;;;;;;;;;15.87;68.63;100235.38;6157277;23;1016;-87
2022/06/20 09:54:28;;;;;;;;;;;;;;;15.49;68.66;100243.34;6131196;23;1346;-87
2022/06/20 09:57:07;;;;;;;;;;;;;;;15.65;68.03;100236.28;6131638;23;1152;-87
2022/06/20 09:59:40;;;;;;;;;;;;;;;15.69;68.74;100244.75;6131207;23;1203;-87
2022/06/20 10:02:14;;;;;;;;;;;;;;;16.03;69.21;100247.56;6132094;23;1932;-87
2022/06/20 10:04:47;;;;;;;;;;;;;;;15.94;68.80;100254.22;6157401;23;1248;-87
2022/06/20 10:07:17;;;;;;;;;;;;;;;16.14;69.95;100256.38;6157171;23;1076;-87
2022/06/20 10:09:57;;;;;;;;;;;;;;;16.30;68.64;100259.44;6131690;23;1157;-88
2022/06/20 10:12:41;;;;;;;;;;;;;;;16.45;72.03;100261.72;6131627;23;1292;-88
2022/06/20 10:15:11;;;;;;;;;;;;;;;16.22;67.84;100272.13;6131104;23;1303;-88
2022/06/20 10:17:55;;;;;;;;;;;;;;;16.38;70.27;100294.56;6157584;23;1017;-88
2022/06/20 10:20:23;;;;;;;;;;;;;;;16.67;71.09;100286.47;6131370;23;1381;-88
2022/06/20 10:22:59;;;;;;;;;;;;;;;16.61;70.05;100287.75;6132359;23;1206;-87
2022/06/20 10:25:35;;;;;;;;;;;;;;;16.76;68.94;100290.00;6158291;23;1282;-88
2022/06/20 10:28:09;;;;;;;;;;;;;;;17.02;71.45;100288.03;6159219;23;1229;-88
2022/06/20 10:30:45;;;;;;;;;;;;;;;16.80;69.29;100285.47;6159054;23;1168;-88
2022/06/20 10:33:21;;;;;;;;;;;;;;;17.01;69.59;100289.16;6159011;23;1251;-87
2022/06/20 10:36:05;;;;;;;;;;;;;;;16.92;66.35;100293.09;6157115;23;1368;-87
2022/06/20 10:38:51;;;;;;;;;;;;;;;16.96;67.83;100283.00;6159614;23;802;-87
2022/06/20 10:41:23;;;;;;;;;;;;;;;16.61;68.12;100291.34;6140318;23;1862;-87
2022/06/20 10:43:55;;;;;;;;;;;;;;;16.30;67.74;100285.13;6175694;23;1214;-87
2022/06/20 10:46:25;;;;;;;;;;;;;;;16.33;70.32;100287.25;6162872;23;1264;-87
2022/06/20 10:49:09;;;;;;;;;;;;;;;16.41;70.86;100289.19;6168122;23;1200;-88
2022/06/20 10:52:01;;;;;;;;;;;;;;;16.50;69.80;100289.22;6163431;23;968;-87
2022/06/20 10:54:44;;;;;;;;;;;;;;;16.40;69.69;100282.06;6155763;23;1351;-88
2022/06/20 10:57:22;;;;;;;;;;;;;;;16.48;70.49;100286.75;6155732;23;1266;-88
2022/06/20 10:59:56;;;;;;;;;;;;;;;16.52;70.43;100287.72;6155664;23;1160;-86
2022/06/20 11:02:21;;;;;;;;;;;;;;;16.57;71.60;100293.09;6157250;23;1938;-87
2022/06/20 11:04:57;;;;;;;;;;;;;;;16.60;72.30;100283.31;6155333;23;1246;-87
2022/06/20 11:07:26;;;;;;;;;;;;;;;16.75;72.62;100285.66;6155655;23;1208;-85
2022/06/20 11:10:09;;;;;;;;;;;;;;;16.81;73.56;100289.03;6153750;23;1194;-85
2022/06/20 11:12:46;;;;;;;;;;;;;;;17.09;71.19;100281.19;6154659;23;1170;-85
2022/06/20 11:15:17;;;;;;;;;;;;;;;17.22;70.79;100275.44;6154227;23;1352;-85
2022/06/20 11:18:06;;;;;;;;;;;;;;;17.34;70.38;100269.25;6158794;23;1299;-86
2022/06/20 11:20:38;;;;;;;;;;;;;;;17.74;72.18;100273.31;6087262;23;1920;-86
2022/06/20 11:23:13;;;;;;;;;;;;;;;17.59;68.83;100271.09;6155055;23;1196;-87
2022/06/20 11:25:54;;;;;;;;;;;;;;;17.52;70.36;100272.75;6155611;23;1267;-87
2022/06/20 11:28:19;;;;;;;;;;;;;;;17.53;67.46;100269.63;6155325;23;1426;-87
2022/06/20 11:31:10;;;;;;;;;;;;;;;17.63;66.47;100258.22;6156327;23;830;-88
2022/06/20 11:34:03;;;;;;;;;;;;;;;17.53;67.83;100264.09;6111082;23;1266;-87
2022/06/20 11:36:34;;;;;;;;;;;;;;;17.32;65.03;100265.97;6155311;23;1204;-87
2022/06/20 11:39:17;;;;;;;;;;;;;;;17.08;67.69;100261.03;6156364;23;992;-87
2022/06/20 11:41:50;;;;;;;;;;;;;;;17.34;69.65;100263.72;6154381;23;1930;-85
2022/06/20 11:44:30;;;;;;;;;;;;;;;17.41;65.16;100277.84;6154298;23;1373;-87
2022/06/20 11:47:05;;;;;;;;;;;;;;;17.75;67.24;100274.94;6156423;23;984;-87
2022/06/20 11:49:41;;;;;;;;;;;;;;;17.69;64.71;100273.47;6154110;23;1116;-87
2022/06/20 11:52:15;;;;;;;;;;;;;;;17.78;66.40;100273.44;6154696;23;1335;-87
2022/06/20 11:54:45;;;;;;;;;;;;;;;17.93;65.75;100289.50;6154162;23;1259;-86
2022/06/20 11:57:16;;;;;;;;;;;;;;;17.92;65.44;100282.34;6152221;23;1185;-86
2022/06/20 11:59:46;;;;;;;;;;;;;;;18.02;63.44;100281.16;6152595;23;1141;-85
2022/06/20 12:02:17;;;;;;;;;;;;;;;18.13;64.51;100285.13;6154144;23;1924;-85
2022/06/20 12:05:02;;;;;;;;;;;;;;;18.05;65.36;100289.56;6154849;23;1286;-86
2022/06/20 12:07:27;;;;;;;;;;;;;;;17.74;63.36;100281.63;6154776;23;1334;-86
2022/06/20 12:09:59;;;;;;;;;;;;;;;17.62;63.82;100284.28;6154729;23;962;-86
2022/06/20 12:12:42;;;;;;;;;;;;;;;17.57;63.03;100287.19;6155974;23;794;-86
2022/06/20 12:15:25;;;;;;;;;;;;;;;17.37;64.05;100279.63;6154299;23;1340;-86
2022/06/20 12:18:09;;;;;;;;;;;;;;;17.41;64.04;100277.84;6154708;23;1405;-87
2022/06/20 12:23:43;;;;;;;;;;;;;;;17.49;64.69;100274.22;6155599;23;930;-85
2022/06/20 12:26:14;;;;;;;;;;;;;;;17.30;63.64;100257.19;6128563;23;1221;-86
2022/06/20 12:28:44;;;;;;;;;;;;;;;17.53;63.21;100255.78;6130027;23;1202;-86
2022/06/20 12:31:23;;;;;;;;;;;;;;;17.64;63.86;100253.50;6128436;23;1306;-85
2022/06/20 12:33:50;;;;;;;;;;;;;;;17.96;63.05;100260.31;6154699;23;1273;-86
2022/06/20 12:36:24;;;;;;;;;;;;;;;18.37;65.75;100257.56;6128573;23;1322;-84
2022/06/20 12:38:59;;;;;;;;;;;;;;;18.43;61.20;100253.44;6155737;23;1020;-85
2022/06/20 12:41:26;;;;;;;;;;;;;;;18.51;59.06;100244.25;6155521;23;1901;-84
2022/06/20 12:43:51;;;;;;;;;;;;;;;18.44;62.21;100248.72;6128393;23;1204;-86
2022/06/20 12:46:22;;;;;;;;;;;;;;;18.61;59.48;100239.47;6155625;23;783;-83
2022/06/20 12:49:01;;;;;;;;;;;;;;;18.81;59.74;100247.72;6129851;23;1264;-86
2022/06/20 12:51:34;;;;;;;;;;;;;;;18.82;53.00;100231.91;6129008;23;1255;-85
2022/06/20 12:54:20;;;;;;;;;;;;;;;18.99;52.50;100220.63;6128699;23;1280;-85
2022/06/20 12:56:45;;;;;;;;;;;;;;;18.90;55.59;100233.78;6153420;23;802;-86
2022/06/20 12:59:16;;;;;;;;;;;;;;;18.63;52.54;100239.94;6154935;23;767;-86
2022/06/20 13:01:59;;;;;;;;;;;;;;;18.21;50.86;100245.47;6129345;23;1901;-86
2022/06/20 13:04:43;;;;;;;;;;;;;;;18.07;50.76;100244.94;6129296;23;1397;-86
2022/06/20 13:07:26;;;;;;;;;;;;;;;18.22;51.15;100235.19;6155481;23;1023;-86
2022/06/20 13:10:03;;;;;;;;;;;;;;;18.42;51.59;100243.50;6129881;23;1148;-86
2022/06/20 13:12:34;;;;;;;;;;;;;;;18.52;49.31;100243.09;6155867;23;833;-86
2022/06/20 13:15:17;;;;;;;;;;;;;;;18.78;49.36;100233.75;6155595;23;1470;-86
2022/06/20 13:18:03;;;;;;;;;;;;;;;18.88;49.75;100238.88;6214144;23;1163;-86
2022/06/20 13:20:46;;;;;;;;;;;;;;;18.84;47.73;100254.56;6213682;23;1392;-86
2022/06/20 13:23:14;;;;;;;;;;;;;;;19.13;48.92;100242.53;6215446;23;1019;-85
2022/06/20 13:25:51;;;;;;;;;;;;;;;19.13;47.35;100239.75;6194232;23;1426;-85
2022/06/20 13:28:21;;;;;;;;;;;;;;;19.22;46.46;100251.56;6184311;23;1242;-86
2022/06/20 13:31:11;;;;;;;;;;;;;;;19.32;48.50;100255.81;6183992;23;1298;-86
2022/06/20 13:33:46;;;;;;;;;;;;;;;19.37;46.02;100241.75;6184040;23;1527;-86
2022/06/20 13:36:30;;;;;;;;;;;;;;;18.97;47.80;100252.66;6184919;23;1218;-87
2022/06/20 13:39:20;;;;;;;;;;;;;;;21.31;43.45;100251.56;6186442;23;1348;-87
2022/06/20 13:41:51;;;;;;;;;;;;;;;23.01;38.27;100233.91;6187496;23;1888;-86
2022/06/20 13:44:25;;;;;;;;;;;;;;;24.04;35.68;100226.44;6185167;23;1258;-85
2022/06/20 13:46:57;;;;;;;;;;;;;;;24.18;37.32;100228.63;6185224;23;1331;-87
2022/06/20 13:49:39;;;;;;;;;;;;;;;23.53;36.99;100229.66;6193204;23;1406;-86
2022/06/20 13:52:23;;;;;;;;;;;;;;;23.13;35.96;100230.16;6188182;23;924;-86
2022/06/20 13:55:01;;;;;;;;;;;;;;;25.43;33.53;100240.09;6186059;23;1191;-86
2022/06/20 13:57:30;;;;;;;;;;;;;;;25.95;31.89;100231.31;6185360;23;1290;-86
2022/06/20 14:00:07;;;;;;;;;;;;;;;27.52;31.16;100231.88;6185307;23;1344;-87
2022/06/20 14:02:32;;;;;;;;;;;;;;;27.23;30.86;100239.47;6185508;23;1881;-87
2022/06/20 14:05:18;;;;;;;;;;;;;;;28.15;28.28;100226.22;6186418;23;1218;-87
2022/06/20 14:07:45;;;;;;;;;;;;;;;28.07;29.14;100216.16;6185006;23;1160;-86
2022/06/20 14:10:28;;;;;;;;;;;;;;;28.69;29.12;100232.44;6185948;23;1418;-86
2022/06/20 14:12:58;;;;;;;;;;;;;;;29.14;26.02;100218.53;6185838;23;1283;-88
2022/06/20 14:15:26;;;;;;;;;;;;;;;29.93;26.80;100211.03;6171122;23;1265;-88
2022/06/20 14:17:57;;;;;;;;;;;;;;;30.07;27.42;100213.72;6131686;23;1192;-86
2022/06/20 14:20:34;;;;;;;;;;;;;;;29.83;27.97;100211.94;6158516;23;988;-85
2022/06/20 14:23:00;;;;;;;;;;;;;;;25.79;29.58;100232.78;6158175;23;988;-86
2022/06/20 14:25:39;;;;;;;;;;;;;;;26.01;30.23;100226.16;6133126;23;1308;-86
2022/06/20 14:28:34;;;;;;;;;;;;;;;25.77;30.34;100216.38;6159680;23;783;-86
2022/06/20 14:31:15;;;;;;;;;;;;;;;26.17;28.65;100226.63;6101962;23;1364;-87
2022/06/20 14:33:49;;;;;;;;;;;;;;;26.10;28.77;100220.19;6132852;23;1307;-86
2022/06/20 14:36:25;;;;;;;;;;;;;;;25.36;31.17;100228.81;6132781;23;1312;-86
2022/06/20 14:38:55;;;;;;;;;;;;;;;25.35;32.38;100227.22;6133853;23;1345;-86
2022/06/20 14:44:17;;;;;;;;;;;;;;;26.91;28.64;100214.13;6159040;23;621;-86
2022/06/20 14:46:55;;;;;;;;;;;;;;;25.68;29.39;100212.31;6132746;23;1165;-86
2022/06/20 14:49:44;;;;;;;;;;;;;;;24.66;31.27;100233.28;6130402;23;1196;-85
2022/06/20 14:52:18;;;;;;;;;;;;;;;23.27;33.45;100222.00;6156675;23;834;-86
2022/06/20 14:55:13;;;;;;;;;;;;;;;23.37;34.54;100228.97;6132006;23;1258;-87
2022/06/20 14:57:50;;;;;;;;;;;;;;;23.49;36.79;100223.19;6005795;23;1341;-87
2022/06/20 15:00:18;;;;;;;;;;;;;;;23.33;34.47;100212.13;6132029;23;1160;-86
2022/06/20 15:02:47;;;;;;;;;;;;;;;22.85;37.14;100218.44;6132086;23;1885;-86
2022/06/20 15:05:16;;;;;;;;;;;;;;;22.86;34.41;100215.28;6155665;23;1243;-87
2022/06/20 15:07:48;;;;;;;;;;;;;;;23.09;36.07;100220.88;6129810;23;1074;-87
2022/06/20 15:10:19;;;;;;;;;;;;;;;23.04;36.34;100203.66;6131037;23;1305;-85
2022/06/20 15:12:46;;;;;;;;;;;;;;;23.35;34.29;100228.53;6131071;23;1293;-86
2022/06/20 15:15:19;;;;;;;;;;;;;;;23.73;35.61;100216.41;6156998;23;1271;-87
2022/06/20 15:17:53;;;;;;;;;;;;;;;23.63;33.08;100258.97;6156393;23;1008;-87
2022/06/20 15:20:22;;;;;;;;;;;;;;;22.80;34.54;100219.53;6131466;23;1328;-87
2022/06/20 15:22:52;;;;;;;;;;;;;;;23.17;33.21;100214.25;6157360;23;1889;-85
2022/06/20 15:25:20;;;;;;;;;;;;;;;23.65;33.39;100217.44;6156108;23;1277;-87
2022/06/20 15:27:54;;;;;;;;;;;;;;;22.48;34.31;100234.81;6130823;23;1183;-87
2022/06/20 15:30:39;;;;;;;;;;;;;;;22.65;34.26;100212.03;6156768;23;921;-89
2022/06/20 15:33:24;;;;;;;;;;;;;;;22.16;35.98;100218.22;6156102;23;1035;-87
2022/06/20 15:35:50;;;;;;;;;;;;;;;21.92;36.39;100215.66;6131150;23;1262;-86
2022/06/20 15:38:18;;;;;;;;;;;;;;;22.04;35.59;100223.09;6158144;23;857;-87
2022/06/20 15:40:48;;;;;;;;;;;;;;;22.72;34.77;100214.97;6131604;23;1922;-87
2022/06/20 15:43:24;;;;;;;;;;;;;;;22.87;36.71;100218.88;6156949;23;846;-87
2022/06/20 15:45:53;;;;;;;;;;;;;;;23.39;35.44;100219.00;6130254;23;1258;-87
2022/06/20 15:48:25;;;;;;;;;;;;;;;23.02;35.16;100232.75;6156577;23;889;-86
2022/06/20 15:50:57;;;;;;;;;;;;;;;23.15;34.25;100227.75;6156220;23;857;-87
2022/06/20 15:53:53;;;;;;;;;;;;;;;23.94;33.66;100232.69;6131581;23;1267;-87
2022/06/20 15:56:29;;;;;;;;;;;;;;;23.60;33.49;100229.78;6163810;23;1282;-86
2022/06/20 15:58:58;;;;;;;;;;;;;;;23.30;34.78;100232.44;6172499;23;940;-86
2022/06/20 16:01:49;;;;;;;;;;;;;;;23.73;34.12;100233.97;6156114;23;1927;-87
2022/06/20 16:04:46;;;;;;;;;;;;;;;23.24;34.22;100233.09;6148899;23;1251;-87
2022/06/20 16:07:30;;;;;;;;;;;;;;;22.05;35.78;100231.09;6101146;23;1389;-86
2022/06/20 16:10:00;;;;;;;;;;;;;;;22.58;36.23;100234.22;6131170;23;1099;-87
2022/06/20 16:12:27;;;;;;;;;;;;;;;22.28;36.39;100222.84;6130411;23;1153;-87
2022/06/20 16:15:01;;;;;;;;;;;;;;;22.69;36.08;100232.47;6144726;23;1299;-86
2022/06/20 16:17:29;;;;;;;;;;;;;;;22.30;36.77;100240.00;6184527;23;1068;-87
2022/06/20 16:19:56;;;;;;;;;;;;;;;21.87;35.52;100239.03;6185759;23;1235;-86
2022/06/20 16:22:23;;;;;;;;;;;;;;;22.07;35.79;100241.88;6186077;23;1904;-87
2022/06/20 16:24:55;;;;;;;;;;;;;;;22.18;36.79;100254.91;6184836;23;1184;-87
2022/06/20 16:27:28;;;;;;;;;;;;;;;22.12;36.11;100247.97;6185789;23;814;-86
2022/06/20 16:29:54;;;;;;;;;;;;;;;22.16;37.18;100248.06;6186385;23;806;-85
2022/06/20 16:32:46;;;;;;;;;;;;;;;22.53;36.33;100257.66;6186708;23;864;-85